sensor_id;sensor_type;location;lat;lon;timestamp;P1;durP1;ratioP1;P2;durP2;ratioP2
63492;SDS011;49638;47.526;10.028;2023-02-14T00:00:22;1.48;;;1.20;;
63492;SDS011;49638;47.526;10.028;2023-02-14T00:03:23;2.38;;;1.58;;
63492;SDS011;49638;47.526;10.028;2023-02-14T00:06:23;2.85;;;1.42;;
63492;SDS011;49638;47.526;10.028;2023-02-14T00:09:23;2.75;;;1.60;;
63492;SDS011;49638;47.526;10.028;2023-02-14T00:12:23;2.28;;;1.50;;
63492;SDS011;49638;47.526;10.028;2023-02-14T00:15:24;2.15;;;1.45;;
63492;SDS011;49638;47.526;10.028;2023-02-14T00:18:24;2.45;;;1.52;;
63492;SDS011;49638;47.526;10.028;2023-02-14T00:21:47;2.30;;;1.30;;
63492;SDS011;49638;47.526;10.028;2023-02-14T00:24:48;4.50;;;1.50;;
63492;SDS011;49638;47.526;10.028;2023-02-14T00:27:48;3.33;;;1.40;;
63492;SDS011;49638;47.526;10.028;2023-02-14T00:30:49;2.45;;;1.23;;
63492;SDS011;49638;47.526;10.028;2023-02-14T00:33:49;2.00;;;1.42;;
63492;SDS011;49638;47.526;10.028;2023-02-14T00:36:49;2.58;;;1.77;;
63492;SDS011;49638;47.526;10.028;2023-02-14T00:39:50;2.28;;;1.48;;
63492;SDS011;49638;47.526;10.028;2023-02-14T00:42:50;2.55;;;1.63;;
63492;SDS011;49638;47.526;10.028;2023-02-14T00:45:50;3.30;;;1.60;;
63492;SDS011;49638;47.526;10.028;2023-02-14T00:48:51;1.85;;;1.33;;
63492;SDS011;49638;47.526;10.028;2023-02-14T00:51:51;2.50;;;1.35;;
63492;SDS011;49638;47.526;10.028;2023-02-14T00:54:52;2.40;;;1.30;;
63492;SDS011;49638;47.526;10.028;2023-02-14T00:57:52;2.75;;;1.50;;
63492;SDS011;49638;47.526;10.028;2023-02-14T01:00:52;2.88;;;1.60;;
63492;SDS011;49638;47.526;10.028;2023-02-14T01:03:52;2.70;;;1.50;;
63492;SDS011;49638;47.526;10.028;2023-02-14T01:06:53;2.60;;;1.73;;
63492;SDS011;49638;47.526;10.028;2023-02-14T01:09:53;1.83;;;1.38;;
63492;SDS011;49638;47.526;10.028;2023-02-14T01:12:54;2.47;;;1.60;;
63492;SDS011;49638;47.526;10.028;2023-02-14T01:15:54;2.30;;;1.38;;
63492;SDS011;49638;47.526;10.028;2023-02-14T01:18:54;3.13;;;1.60;;
63492;SDS011;49638;47.526;10.028;2023-02-14T01:21:55;2.90;;;1.58;;
63492;SDS011;49638;47.526;10.028;2023-02-14T01:24:55;2.45;;;1.52;;
63492;SDS011;49638;47.526;10.028;2023-02-14T01:27:56;1.88;;;1.30;;
63492;SDS011;49638;47.526;10.028;2023-02-14T01:30:56;2.40;;;1.38;;
63492;SDS011;49638;47.526;10.028;2023-02-14T01:33:57;1.50;;;1.25;;
63492;SDS011;49638;47.526;10.028;2023-02-14T01:36:58;2.58;;;1.65;;
63492;SDS011;49638;47.526;10.028;2023-02-14T01:39:58;2.42;;;1.50;;
63492;SDS011;49638;47.526;10.028;2023-02-14T01:42:59;2.20;;;1.67;;
63492;SDS011;49638;47.526;10.028;2023-02-14T01:45:59;2.50;;;1.50;;
63492;SDS011;49638;47.526;10.028;2023-02-14T01:49:04;2.55;;;1.42;;
63492;SDS011;49638;47.526;10.028;2023-02-14T01:52:16;3.22;;;1.48;;
63492;SDS011;49638;47.526;10.028;2023-02-14T01:55:22;1.88;;;1.23;;
63492;SDS011;49638;47.526;10.028;2023-02-14T01:58:27;2.40;;;1.42;;
63492;SDS011;49638;47.526;10.028;2023-02-14T02:01:30;2.13;;;1.33;;
63492;SDS011;49638;47.526;10.028;2023-02-14T02:04:32;1.88;;;1.40;;
63492;SDS011;49638;47.526;10.028;2023-02-14T02:07:36;2.22;;;1.50;;
63492;SDS011;49638;47.526;10.028;2023-02-14T02:10:37;2.13;;;1.23;;
63492;SDS011;49638;47.526;10.028;2023-02-14T02:13:37;2.15;;;1.27;;
63492;SDS011;49638;47.526;10.028;2023-02-14T02:36:46;1.92;;;1.25;;
63492;SDS011;49638;47.526;10.028;2023-02-14T02:40:17;2.38;;;1.40;;
63492;SDS011;49638;47.526;10.028;2023-02-14T02:46:31;1.88;;;1.23;;
63492;SDS011;49638;47.526;10.028;2023-02-14T02:49:55;2.20;;;1.35;;
63492;SDS011;49638;47.526;10.028;2023-02-14T02:53:26;1.92;;;1.27;;
63492;SDS011;49638;47.526;10.028;2023-02-14T02:56:34;1.52;;;1.10;;
63492;SDS011;49638;47.526;10.028;2023-02-14T02:59:44;2.38;;;1.42;;
63492;SDS011;49638;47.526;10.028;2023-02-14T03:02:47;1.88;;;1.48;;
63492;SDS011;49638;47.526;10.028;2023-02-14T03:06:09;2.53;;;1.25;;
63492;SDS011;49638;47.526;10.028;2023-02-14T03:09:55;1.38;;;1.20;;
63492;SDS011;49638;47.526;10.028;2023-02-14T03:18:58;1.25;;;1.10;;
63492;SDS011;49638;47.526;10.028;2023-02-14T03:22:15;1.85;;;1.40;;
63492;SDS011;49638;47.526;10.028;2023-02-14T03:25:28;3.22;;;1.50;;
63492;SDS011;49638;47.526;10.028;2023-02-14T03:32:08;3.78;;;1.40;;
63492;SDS011;49638;47.526;10.028;2023-02-14T03:35:19;1.77;;;1.27;;
63492;SDS011;49638;47.526;10.028;2023-02-14T03:38:24;1.55;;;1.45;;
63492;SDS011;49638;47.526;10.028;2023-02-14T03:41:33;2.17;;;1.30;;
63492;SDS011;49638;47.526;10.028;2023-02-14T03:44:38;1.48;;;1.20;;
63492;SDS011;49638;47.526;10.028;2023-02-14T03:47:40;1.60;;;1.20;;
63492;SDS011;49638;47.526;10.028;2023-02-14T03:50:44;1.67;;;1.20;;
63492;SDS011;49638;47.526;10.028;2023-02-14T03:53:46;4.47;;;1.40;;
63492;SDS011;49638;47.526;10.028;2023-02-14T03:56:52;1.58;;;1.10;;
63492;SDS011;49638;47.526;10.028;2023-02-14T03:59:59;2.40;;;1.58;;
63492;SDS011;49638;47.526;10.028;2023-02-14T04:03:00;2.28;;;1.27;;
63492;SDS011;49638;47.526;10.028;2023-02-14T04:06:05;1.73;;;1.13;;
63492;SDS011;49638;47.526;10.028;2023-02-14T04:09:05;3.47;;;1.10;;
63492;SDS011;49638;47.526;10.028;2023-02-14T04:12:06;2.15;;;1.23;;
63492;SDS011;49638;47.526;10.028;2023-02-14T04:15:06;2.97;;;1.25;;
63492;SDS011;49638;47.526;10.028;2023-02-14T04:18:07;1.52;;;1.10;;
63492;SDS011;49638;47.526;10.028;2023-02-14T04:21:26;1.55;;;1.15;;
63492;SDS011;49638;47.526;10.028;2023-02-14T04:24:26;1.48;;;1.13;;
63492;SDS011;49638;47.526;10.028;2023-02-14T04:27:27;1.10;;;1.00;;
63492;SDS011;49638;47.526;10.028;2023-02-14T04:30:27;3.08;;;1.40;;
63492;SDS011;49638;47.526;10.028;2023-02-14T04:33:27;1.80;;;1.10;;
63492;SDS011;49638;47.526;10.028;2023-02-14T04:36:28;2.17;;;1.25;;
63492;SDS011;49638;47.526;10.028;2023-02-14T04:39:28;1.63;;;1.08;;
63492;SDS011;49638;47.526;10.028;2023-02-14T04:42:29;1.70;;;1.23;;
63492;SDS011;49638;47.526;10.028;2023-02-14T04:45:29;2.05;;;1.30;;
63492;SDS011;49638;47.526;10.028;2023-02-14T04:48:29;2.60;;;1.27;;
63492;SDS011;49638;47.526;10.028;2023-02-14T04:51:29;2.70;;;1.58;;
63492;SDS011;49638;47.526;10.028;2023-02-14T04:54:30;1.80;;;1.42;;
63492;SDS011;49638;47.526;10.028;2023-02-14T04:57:31;1.45;;;1.13;;
63492;SDS011;49638;47.526;10.028;2023-02-14T05:00:32;2.75;;;1.20;;
63492;SDS011;49638;47.526;10.028;2023-02-14T05:03:32;2.15;;;1.20;;
63492;SDS011;49638;47.526;10.028;2023-02-14T05:06:32;2.00;;;1.20;;
63492;SDS011;49638;47.526;10.028;2023-02-14T05:09:33;2.92;;;1.40;;
63492;SDS011;49638;47.526;10.028;2023-02-14T05:12:33;2.58;;;1.25;;
63492;SDS011;49638;47.526;10.028;2023-02-14T05:15:34;2.78;;;1.20;;
63492;SDS011;49638;47.526;10.028;2023-02-14T05:18:34;3.38;;;1.30;;
63492;SDS011;49638;47.526;10.028;2023-02-14T05:21:34;1.67;;;1.27;;
63492;SDS011;49638;47.526;10.028;2023-02-14T05:24:34;2.13;;;1.30;;
63492;SDS011;49638;47.526;10.028;2023-02-14T05:27:35;1.95;;;1.17;;
63492;SDS011;49638;47.526;10.028;2023-02-14T05:30:36;1.90;;;1.13;;
63492;SDS011;49638;47.526;10.028;2023-02-14T05:33:37;2.25;;;1.20;;
63492;SDS011;49638;47.526;10.028;2023-02-14T05:36:37;1.58;;;1.35;;
63492;SDS011;49638;47.526;10.028;2023-02-14T05:39:37;2.25;;;1.40;;
63492;SDS011;49638;47.526;10.028;2023-02-14T05:42:37;2.10;;;1.30;;
63492;SDS011;49638;47.526;10.028;2023-02-14T05:45:38;1.45;;;1.10;;
63492;SDS011;49638;47.526;10.028;2023-02-14T05:48:38;1.30;;;1.10;;
63492;SDS011;49638;47.526;10.028;2023-02-14T05:51:39;1.67;;;1.02;;
63492;SDS011;49638;47.526;10.028;2023-02-14T05:54:39;1.63;;;1.20;;
63492;SDS011;49638;47.526;10.028;2023-02-14T05:57:39;2.05;;;1.27;;
63492;SDS011;49638;47.526;10.028;2023-02-14T06:00:40;1.38;;;1.05;;
63492;SDS011;49638;47.526;10.028;2023-02-14T06:03:40;1.50;;;1.00;;
63492;SDS011;49638;47.526;10.028;2023-02-14T06:06:41;1.88;;;1.10;;
63492;SDS011;49638;47.526;10.028;2023-02-14T06:09:41;1.42;;;0.90;;
63492;SDS011;49638;47.526;10.028;2023-02-14T06:12:41;1.52;;;1.10;;
63492;SDS011;49638;47.526;10.028;2023-02-14T06:15:41;1.38;;;1.10;;
63492;SDS011;49638;47.526;10.028;2023-02-14T06:18:42;2.03;;;1.30;;
63492;SDS011;49638;47.526;10.028;2023-02-14T06:21:42;2.33;;;1.00;;
63492;SDS011;49638;47.526;10.028;2023-02-14T06:24:42;2.40;;;1.13;;
63492;SDS011;49638;47.526;10.028;2023-02-14T06:27:42;2.15;;;1.10;;
63492;SDS011;49638;47.526;10.028;2023-02-14T06:30:44;2.60;;;0.98;;
63492;SDS011;49638;47.526;10.028;2023-02-14T06:33:45;1.80;;;0.93;;
63492;SDS011;49638;47.526;10.028;2023-02-14T06:36:45;1.25;;;1.00;;
63492;SDS011;49638;47.526;10.028;2023-02-14T06:39:45;3.08;;;1.02;;
63492;SDS011;49638;47.526;10.028;2023-02-14T06:42:46;1.00;;;0.90;;
63492;SDS011;49638;47.526;10.028;2023-02-14T06:45:46;1.50;;;0.88;;
63492;SDS011;49638;47.526;10.028;2023-02-14T06:48:46;2.53;;;1.13;;
63492;SDS011;49638;47.526;10.028;2023-02-14T06:51:47;1.88;;;1.00;;
63492;SDS011;49638;47.526;10.028;2023-02-14T06:54:47;1.85;;;1.00;;
63492;SDS011;49638;47.526;10.028;2023-02-14T06:57:47;2.33;;;1.20;;
63492;SDS011;49638;47.526;10.028;2023-02-14T07:00:47;1.58;;;1.10;;
63492;SDS011;49638;47.526;10.028;2023-02-14T07:03:48;1.55;;;1.10;;
63492;SDS011;49638;47.526;10.028;2023-02-14T07:06:48;3.00;;;0.98;;
63492;SDS011;49638;47.526;10.028;2023-02-14T07:09:48;1.10;;;1.00;;
63492;SDS011;49638;47.526;10.028;2023-02-14T07:12:49;1.85;;;1.00;;
63492;SDS011;49638;47.526;10.028;2023-02-14T07:15:49;4.18;;;2.15;;
63492;SDS011;49638;47.526;10.028;2023-02-14T07:18:50;4.88;;;1.98;;
63492;SDS011;49638;47.526;10.028;2023-02-14T07:21:50;2.60;;;1.50;;
63492;SDS011;49638;47.526;10.028;2023-02-14T07:24:50;2.17;;;1.00;;
63492;SDS011;49638;47.526;10.028;2023-02-14T07:27:50;2.05;;;1.10;;
63492;SDS011;49638;47.526;10.028;2023-02-14T07:30:51;2.05;;;1.35;;
63492;SDS011;49638;47.526;10.028;2023-02-14T07:33:51;1.52;;;1.25;;
63492;SDS011;49638;47.526;10.028;2023-02-14T07:36:51;1.73;;;1.20;;
63492;SDS011;49638;47.526;10.028;2023-02-14T07:39:52;1.20;;;1.00;;
63492;SDS011;49638;47.526;10.028;2023-02-14T07:42:53;1.77;;;1.02;;
63492;SDS011;49638;47.526;10.028;2023-02-14T07:45:54;1.50;;;1.10;;
63492;SDS011;49638;47.526;10.028;2023-02-14T07:48:54;2.20;;;1.17;;
63492;SDS011;49638;47.526;10.028;2023-02-14T07:51:54;7.40;;;3.90;;
63492;SDS011;49638;47.526;10.028;2023-02-14T07:54:54;1.15;;;1.05;;
63492;SDS011;49638;47.526;10.028;2023-02-14T07:57:55;2.85;;;1.10;;
63492;SDS011;49638;47.526;10.028;2023-02-14T08:00:55;2.30;;;1.40;;
63492;SDS011;49638;47.526;10.028;2023-02-14T08:03:55;4.00;;;1.42;;
63492;SDS011;49638;47.526;10.028;2023-02-14T08:06:56;2.22;;;1.50;;
63492;SDS011;49638;47.526;10.028;2023-02-14T08:09:56;40.00;;;17.33;;
63492;SDS011;49638;47.526;10.028;2023-02-14T08:12:56;25.33;;;11.18;;
63492;SDS011;49638;47.526;10.028;2023-02-14T08:15:59;18.55;;;7.65;;
63492;SDS011;49638;47.526;10.028;2023-02-14T08:19:06;10.60;;;6.85;;
63492;SDS011;49638;47.526;10.028;2023-02-14T08:22:06;7.32;;;4.32;;
63492;SDS011;49638;47.526;10.028;2023-02-14T08:25:07;8.50;;;3.97;;
63492;SDS011;49638;47.526;10.028;2023-02-14T08:28:07;7.60;;;3.65;;
63492;SDS011;49638;47.526;10.028;2023-02-14T08:31:08;4.88;;;2.38;;
63492;SDS011;49638;47.526;10.028;2023-02-14T08:34:08;2.90;;;1.30;;
63492;SDS011;49638;47.526;10.028;2023-02-14T08:37:09;4.82;;;2.63;;
63492;SDS011;49638;47.526;10.028;2023-02-14T08:40:09;16.85;;;8.10;;
63492;SDS011;49638;47.526;10.028;2023-02-14T08:43:10;17.90;;;9.90;;
63492;SDS011;49638;47.526;10.028;2023-02-14T08:46:11;80.93;;;30.38;;
63492;SDS011;49638;47.526;10.028;2023-02-14T08:49:13;18.02;;;7.57;;
63492;SDS011;49638;47.526;10.028;2023-02-14T08:52:14;5.50;;;2.75;;
63492;SDS011;49638;47.526;10.028;2023-02-14T08:55:15;53.53;;;16.45;;
63492;SDS011;49638;47.526;10.028;2023-02-14T08:58:15;14.13;;;5.53;;
63492;SDS011;49638;47.526;10.028;2023-02-14T09:01:16;7.30;;;2.60;;
63492;SDS011;49638;47.526;10.028;2023-02-14T09:04:16;4.22;;;2.28;;
63492;SDS011;49638;47.526;10.028;2023-02-14T09:07:17;4.35;;;1.90;;
63492;SDS011;49638;47.526;10.028;2023-02-14T09:10:18;1.75;;;1.40;;
63492;SDS011;49638;47.526;10.028;2023-02-14T09:13:18;3.53;;;2.60;;
63492;SDS011;49638;47.526;10.028;2023-02-14T09:16:20;2.55;;;1.98;;
63492;SDS011;49638;47.526;10.028;2023-02-14T09:19:21;2.03;;;1.40;;
63492;SDS011;49638;47.526;10.028;2023-02-14T09:22:22;1.63;;;1.30;;
63492;SDS011;49638;47.526;10.028;2023-02-14T09:25:22;1.42;;;1.10;;
63492;SDS011;49638;47.526;10.028;2023-02-14T09:28:22;1.40;;;0.93;;
63492;SDS011;49638;47.526;10.028;2023-02-14T09:31:23;2.15;;;1.23;;
63492;SDS011;49638;47.526;10.028;2023-02-14T09:34:24;2.90;;;0.93;;
63492;SDS011;49638;47.526;10.028;2023-02-14T09:37:44;1.55;;;1.15;;
63492;SDS011;49638;47.526;10.028;2023-02-14T09:40:45;2.75;;;1.75;;
63492;SDS011;49638;47.526;10.028;2023-02-14T09:43:49;4.80;;;1.83;;
63492;SDS011;49638;47.526;10.028;2023-02-14T09:46:55;7.25;;;2.08;;
63492;SDS011;49638;47.526;10.028;2023-02-14T09:50:00;3.88;;;1.75;;
63492;SDS011;49638;47.526;10.028;2023-02-14T09:53:05;1.38;;;1.15;;
63492;SDS011;49638;47.526;10.028;2023-02-14T09:59:38;10.75;;;3.17;;
63492;SDS011;49638;47.526;10.028;2023-02-14T10:03:09;85.47;;;21.17;;
63492;SDS011;49638;47.526;10.028;2023-02-14T10:06:39;20.80;;;6.00;;
63492;SDS011;49638;47.526;10.028;2023-02-14T10:13:15;44.15;;;15.55;;
63492;SDS011;49638;47.526;10.028;2023-02-14T10:16:28;44.70;;;12.77;;
63492;SDS011;49638;47.526;10.028;2023-02-14T10:19:39;42.70;;;11.80;;
63492;SDS011;49638;47.526;10.028;2023-02-14T10:23:08;13.93;;;5.07;;
63492;SDS011;49638;47.526;10.028;2023-02-14T10:26:13;8.30;;;3.03;;
63492;SDS011;49638;47.526;10.028;2023-02-14T10:29:18;16.63;;;4.95;;
63492;SDS011;49638;47.526;10.028;2023-02-14T10:32:23;12.73;;;4.70;;
63492;SDS011;49638;47.526;10.028;2023-02-14T10:35:37;10.15;;;3.88;;
63492;SDS011;49638;47.526;10.028;2023-02-14T10:38:47;10.82;;;4.07;;
63492;SDS011;49638;47.526;10.028;2023-02-14T10:42:03;5.13;;;2.28;;
63492;SDS011;49638;47.526;10.028;2023-02-14T10:45:25;4.65;;;1.73;;
63492;SDS011;49638;47.526;10.028;2023-02-14T10:55:07;2.38;;;1.48;;
63492;SDS011;49638;47.526;10.028;2023-02-14T10:58:13;2.15;;;1.45;;
63492;SDS011;49638;47.526;10.028;2023-02-14T11:01:17;3.15;;;1.70;;
63492;SDS011;49638;47.526;10.028;2023-02-14T11:04:18;4.57;;;1.95;;
63492;SDS011;49638;47.526;10.028;2023-02-14T11:07:21;3.33;;;1.80;;
63492;SDS011;49638;47.526;10.028;2023-02-14T11:10:23;4.22;;;1.90;;
63492;SDS011;49638;47.526;10.028;2023-02-14T11:13:28;2.42;;;1.20;;
63492;SDS011;49638;47.526;10.028;2023-02-14T11:16:35;2.63;;;1.30;;
63492;SDS011;49638;47.526;10.028;2023-02-14T11:19:36;3.00;;;1.20;;
63492;SDS011;49638;47.526;10.028;2023-02-14T11:22:37;1.15;;;1.00;;
63492;SDS011;49638;47.526;10.028;2023-02-14T11:25:38;2.40;;;1.05;;
63492;SDS011;49638;47.526;10.028;2023-02-14T11:29:01;2.47;;;1.20;;
63492;SDS011;49638;47.526;10.028;2023-02-14T11:35:18;1.85;;;1.20;;
63492;SDS011;49638;47.526;10.028;2023-02-14T11:38:26;1.20;;;0.98;;
63492;SDS011;49638;47.526;10.028;2023-02-14T11:41:52;1.27;;;1.17;;
63492;SDS011;49638;47.526;10.028;2023-02-14T11:44:57;3.03;;;1.33;;
63492;SDS011;49638;47.526;10.028;2023-02-14T11:51:18;3.40;;;1.60;;
63492;SDS011;49638;47.526;10.028;2023-02-14T11:54:31;2.58;;;1.67;;
63492;SDS011;49638;47.526;10.028;2023-02-14T11:57:36;2.08;;;1.48;;
63492;SDS011;49638;47.526;10.028;2023-02-14T12:00:38;4.13;;;3.25;;
63492;SDS011;49638;47.526;10.028;2023-02-14T12:03:42;3.83;;;2.40;;
63492;SDS011;49638;47.526;10.028;2023-02-14T12:06:45;3.40;;;1.70;;
63492;SDS011;49638;47.526;10.028;2023-02-14T12:09:46;2.83;;;1.48;;
63492;SDS011;49638;47.526;10.028;2023-02-14T12:15:56;4.38;;;1.48;;
63492;SDS011;49638;47.526;10.028;2023-02-14T12:22:12;1.63;;;1.10;;
63492;SDS011;49638;47.526;10.028;2023-02-14T12:25:17;1.50;;;1.10;;
63492;SDS011;49638;47.526;10.028;2023-02-14T12:28:42;1.83;;;1.33;;
63492;SDS011;49638;47.526;10.028;2023-02-14T12:31:48;1.60;;;1.17;;
63492;SDS011;49638;47.526;10.028;2023-02-14T12:34:49;2.20;;;1.13;;
63492;SDS011;49638;47.526;10.028;2023-02-14T12:44:24;1.55;;;1.00;;
63492;SDS011;49638;47.526;10.028;2023-02-14T13:04:46;2.03;;;1.25;;
63492;SDS011;49638;47.526;10.028;2023-02-14T13:08:09;2.25;;;1.30;;
63492;SDS011;49638;47.526;10.028;2023-02-14T13:18:02;1.67;;;1.00;;
63492;SDS011;49638;47.526;10.028;2023-02-14T13:21:05;1.95;;;1.08;;
63492;SDS011;49638;47.526;10.028;2023-02-14T13:27:15;2.38;;;1.20;;
63492;SDS011;49638;47.526;10.028;2023-02-14T13:30:27;3.22;;;1.00;;
63492;SDS011;49638;47.526;10.028;2023-02-14T13:33:32;2.17;;;1.35;;
63492;SDS011;49638;47.526;10.028;2023-02-14T13:36:36;2.28;;;1.35;;
63492;SDS011;49638;47.526;10.028;2023-02-14T13:39:41;2.40;;;1.58;;
63492;SDS011;49638;47.526;10.028;2023-02-14T13:43:00;1.38;;;1.13;;
63492;SDS011;49638;47.526;10.028;2023-02-14T13:46:01;3.03;;;1.40;;
63492;SDS011;49638;47.526;10.028;2023-02-14T13:55:42;1.30;;;1.13;;
63492;SDS011;49638;47.526;10.028;2023-02-14T14:01:55;1.98;;;1.10;;
63492;SDS011;49638;47.526;10.028;2023-02-14T14:14:42;1.80;;;1.38;;
63492;SDS011;49638;47.526;10.028;2023-02-14T14:17:43;3.08;;;2.25;;
63492;SDS011;49638;47.526;10.028;2023-02-14T14:20:46;4.25;;;3.10;;
63492;SDS011;49638;47.526;10.028;2023-02-14T14:24:00;5.38;;;2.80;;
63492;SDS011;49638;47.526;10.028;2023-02-14T14:27:33;3.75;;;2.95;;
63492;SDS011;49638;47.526;10.028;2023-02-14T14:30:40;3.10;;;2.45;;
63492;SDS011;49638;47.526;10.028;2023-02-14T14:33:42;4.95;;;2.25;;
63492;SDS011;49638;47.526;10.028;2023-02-14T14:36:43;2.78;;;2.00;;
63492;SDS011;49638;47.526;10.028;2023-02-14T14:39:48;3.33;;;2.17;;
63492;SDS011;49638;47.526;10.028;2023-02-14T14:42:53;2.83;;;2.13;;
63492;SDS011;49638;47.526;10.028;2023-02-14T14:46:06;10.55;;;3.70;;
63492;SDS011;49638;47.526;10.028;2023-02-14T14:49:09;17.35;;;5.85;;
63492;SDS011;49638;47.526;10.028;2023-02-14T14:52:32;8.80;;;3.40;;
63492;SDS011;49638;47.526;10.028;2023-02-14T14:55:35;2.80;;;2.00;;
63492;SDS011;49638;47.526;10.028;2023-02-14T14:58:38;28.55;;;8.73;;
63492;SDS011;49638;47.526;10.028;2023-02-14T15:01:39;35.53;;;11.38;;
63492;SDS011;49638;47.526;10.028;2023-02-14T15:04:40;60.30;;;17.42;;
63492;SDS011;49638;47.526;10.028;2023-02-14T15:07:40;35.92;;;11.63;;
63492;SDS011;49638;47.526;10.028;2023-02-14T15:10:41;20.50;;;6.88;;
63492;SDS011;49638;47.526;10.028;2023-02-14T15:13:46;9.57;;;5.55;;
63492;SDS011;49638;47.526;10.028;2023-02-14T15:16:53;3.53;;;2.92;;
63492;SDS011;49638;47.526;10.028;2023-02-14T15:19:59;16.58;;;11.73;;
63492;SDS011;49638;47.526;10.028;2023-02-14T15:26:03;4.20;;;2.63;;
63492;SDS011;49638;47.526;10.028;2023-02-14T15:29:05;4.22;;;2.45;;
63492;SDS011;49638;47.526;10.028;2023-02-14T15:32:07;4.70;;;2.97;;
63492;SDS011;49638;47.526;10.028;2023-02-14T15:35:09;4.93;;;3.67;;
63492;SDS011;49638;47.526;10.028;2023-02-14T15:38:11;8.02;;;4.60;;
63492;SDS011;49638;47.526;10.028;2023-02-14T15:41:12;3.33;;;2.67;;
63492;SDS011;49638;47.526;10.028;2023-02-14T15:44:21;4.25;;;2.47;;
63492;SDS011;49638;47.526;10.028;2023-02-14T15:47:23;5.05;;;2.47;;
63492;SDS011;49638;47.526;10.028;2023-02-14T15:50:24;3.10;;;2.20;;
63492;SDS011;49638;47.526;10.028;2023-02-14T15:56:42;5.97;;;4.50;;
63492;SDS011;49638;47.526;10.028;2023-02-14T16:02:49;5.00;;;2.20;;
63492;SDS011;49638;47.526;10.028;2023-02-14T16:05:53;3.47;;;2.13;;
63492;SDS011;49638;47.526;10.028;2023-02-14T16:08:54;7.03;;;2.33;;
63492;SDS011;49638;47.526;10.028;2023-02-14T16:11:54;185.07;;;45.88;;
63492;SDS011;49638;47.526;10.028;2023-02-14T16:18:17;370.63;;;97.57;;
63492;SDS011;49638;47.526;10.028;2023-02-14T16:21:30;197.93;;;54.67;;
63492;SDS011;49638;47.526;10.028;2023-02-14T16:24:31;78.32;;;38.38;;
63492;SDS011;49638;47.526;10.028;2023-02-14T16:27:32;16.00;;;10.13;;
63492;SDS011;49638;47.526;10.028;2023-02-14T16:30:33;13.75;;;6.75;;
63492;SDS011;49638;47.526;10.028;2023-02-14T16:33:35;8.30;;;4.95;;
63492;SDS011;49638;47.526;10.028;2023-02-14T16:36:38;6.25;;;3.30;;
63492;SDS011;49638;47.526;10.028;2023-02-14T16:39:39;4.22;;;2.80;;
63492;SDS011;49638;47.526;10.028;2023-02-14T16:42:39;4.43;;;3.05;;
63492;SDS011;49638;47.526;10.028;2023-02-14T16:45:40;6.03;;;3.30;;
63492;SDS011;49638;47.526;10.028;2023-02-14T16:48:42;5.15;;;2.92;;
63492;SDS011;49638;47.526;10.028;2023-02-14T16:51:43;4.47;;;2.92;;
63492;SDS011;49638;47.526;10.028;2023-02-14T16:54:45;5.47;;;3.20;;
63492;SDS011;49638;47.526;10.028;2023-02-14T16:57:46;6.13;;;2.90;;
63492;SDS011;49638;47.526;10.028;2023-02-14T17:00:48;3.77;;;2.80;;
63492;SDS011;49638;47.526;10.028;2023-02-14T17:03:49;5.72;;;2.90;;
63492;SDS011;49638;47.526;10.028;2023-02-14T17:06:53;6.82;;;3.85;;
63492;SDS011;49638;47.526;10.028;2023-02-14T17:09:57;8.98;;;4.05;;
63492;SDS011;49638;47.526;10.028;2023-02-14T17:13:02;6.13;;;3.65;;
63492;SDS011;49638;47.526;10.028;2023-02-14T17:16:04;7.75;;;5.80;;
63492;SDS011;49638;47.526;10.028;2023-02-14T17:19:05;13.85;;;9.48;;
63492;SDS011;49638;47.526;10.028;2023-02-14T17:22:06;8.63;;;5.30;;
63492;SDS011;49638;47.526;10.028;2023-02-14T17:25:07;6.95;;;4.45;;
63492;SDS011;49638;47.526;10.028;2023-02-14T17:28:07;6.43;;;3.72;;
63492;SDS011;49638;47.526;10.028;2023-02-14T17:31:08;4.80;;;3.00;;
63492;SDS011;49638;47.526;10.028;2023-02-14T17:34:08;9.68;;;4.57;;
63492;SDS011;49638;47.526;10.028;2023-02-14T17:37:09;8.35;;;3.30;;
63492;SDS011;49638;47.526;10.028;2023-02-14T17:40:10;5.05;;;2.75;;
63492;SDS011;49638;47.526;10.028;2023-02-14T17:43:11;7.45;;;4.22;;
63492;SDS011;49638;47.526;10.028;2023-02-14T17:46:11;9.15;;;4.95;;
63492;SDS011;49638;47.526;10.028;2023-02-14T17:49:13;5.35;;;3.33;;
63492;SDS011;49638;47.526;10.028;2023-02-14T17:52:14;5.55;;;3.08;;
63492;SDS011;49638;47.526;10.028;2023-02-14T17:55:15;5.55;;;2.53;;
63492;SDS011;49638;47.526;10.028;2023-02-14T17:58:15;7.07;;;4.25;;
63492;SDS011;49638;47.526;10.028;2023-02-14T18:01:16;11.05;;;6.57;;
63492;SDS011;49638;47.526;10.028;2023-02-14T18:04:19;12.57;;;5.75;;
63492;SDS011;49638;47.526;10.028;2023-02-14T18:07:19;8.02;;;3.95;;
63492;SDS011;49638;47.526;10.028;2023-02-14T18:10:20;8.82;;;3.47;;
63492;SDS011;49638;47.526;10.028;2023-02-14T18:13:20;11.63;;;5.13;;
63492;SDS011;49638;47.526;10.028;2023-02-14T18:16:22;5.68;;;3.05;;
63492;SDS011;49638;47.526;10.028;2023-02-14T18:19:23;5.22;;;2.70;;
63492;SDS011;49638;47.526;10.028;2023-02-14T18:22:24;4.10;;;2.40;;
63492;SDS011;49638;47.526;10.028;2023-02-14T18:25:24;4.63;;;2.60;;
63492;SDS011;49638;47.526;10.028;2023-02-14T18:28:24;5.05;;;2.78;;
63492;SDS011;49638;47.526;10.028;2023-02-14T18:31:25;4.72;;;2.67;;
63492;SDS011;49638;47.526;10.028;2023-02-14T18:34:25;4.45;;;2.60;;
63492;SDS011;49638;47.526;10.028;2023-02-14T18:37:25;4.50;;;2.33;;
63492;SDS011;49638;47.526;10.028;2023-02-14T18:40:26;3.70;;;2.25;;
63492;SDS011;49638;47.526;10.028;2023-02-14T18:43:26;2.90;;;2.00;;
63492;SDS011;49638;47.526;10.028;2023-02-14T18:46:28;3.42;;;2.10;;
63492;SDS011;49638;47.526;10.028;2023-02-14T18:49:32;2.60;;;2.15;;
63492;SDS011;49638;47.526;10.028;2023-02-14T18:52:33;3.80;;;2.58;;
63492;SDS011;49638;47.526;10.028;2023-02-14T18:55:35;4.32;;;2.75;;
63492;SDS011;49638;47.526;10.028;2023-02-14T18:58:37;6.60;;;2.80;;
63492;SDS011;49638;47.526;10.028;2023-02-14T19:01:40;4.53;;;2.45;;
63492;SDS011;49638;47.526;10.028;2023-02-14T19:04:43;7.55;;;3.00;;
63492;SDS011;49638;47.526;10.028;2023-02-14T19:07:43;7.25;;;3.38;;
63492;SDS011;49638;47.526;10.028;2023-02-14T19:10:43;5.05;;;3.42;;
63492;SDS011;49638;47.526;10.028;2023-02-14T19:13:44;4.72;;;3.20;;
63492;SDS011;49638;47.526;10.028;2023-02-14T19:16:46;5.68;;;3.03;;
63492;SDS011;49638;47.526;10.028;2023-02-14T19:19:51;4.30;;;2.55;;
63492;SDS011;49638;47.526;10.028;2023-02-14T19:22:52;5.65;;;3.05;;
63492;SDS011;49638;47.526;10.028;2023-02-14T19:25:52;4.18;;;2.58;;
63492;SDS011;49638;47.526;10.028;2023-02-14T19:28:53;4.53;;;2.80;;
63492;SDS011;49638;47.526;10.028;2023-02-14T19:31:55;4.37;;;2.53;;
63492;SDS011;49638;47.526;10.028;2023-02-14T19:34:55;4.30;;;2.13;;
63492;SDS011;49638;47.526;10.028;2023-02-14T19:37:56;4.18;;;2.47;;
63492;SDS011;49638;47.526;10.028;2023-02-14T19:40:57;3.95;;;2.10;;
63492;SDS011;49638;47.526;10.028;2023-02-14T19:43:58;6.10;;;2.30;;
63492;SDS011;49638;47.526;10.028;2023-02-14T19:46:59;3.45;;;1.90;;
63492;SDS011;49638;47.526;10.028;2023-02-14T19:50:00;4.10;;;2.13;;
63492;SDS011;49638;47.526;10.028;2023-02-14T19:53:00;7.13;;;3.03;;
63492;SDS011;49638;47.526;10.028;2023-02-14T19:56:00;5.93;;;2.53;;
63492;SDS011;49638;47.526;10.028;2023-02-14T19:59:01;4.28;;;2.40;;
63492;SDS011;49638;47.526;10.028;2023-02-14T20:02:10;5.30;;;2.40;;
63492;SDS011;49638;47.526;10.028;2023-02-14T20:05:13;3.53;;;2.30;;
63492;SDS011;49638;47.526;10.028;2023-02-14T20:08:14;4.93;;;2.70;;
63492;SDS011;49638;47.526;10.028;2023-02-14T20:14:34;4.97;;;2.60;;